createdAt,value
2017-07-21T00:00:16.207Z,101.9
2017-07-21T00:00:46.596Z,101.9
2017-07-21T00:01:17.109Z,102.1
2017-07-21T00:01:47.616Z,102.1
2017-07-21T00:03:14.511Z,101.8
2017-07-21T00:04:13.579Z,101.9
2017-07-21T00:05:13.301Z,101.9
2017-07-21T00:06:12.501Z,101.9
2017-07-21T00:07:11.706Z,101.9
2017-07-21T00:08:10.893Z,102.1
2017-07-21T00:09:10.590Z,102.1
2017-07-21T00:10:09.550Z,102.1
2017-07-21T00:11:09.249Z,102.1
2017-07-21T00:11:39.642Z,102.1
2017-07-21T00:12:10.149Z,102.2
2017-07-21T00:12:40.661Z,102.2
2017-07-21T00:14:07.032Z,102.1
2017-07-21T00:15:06.747Z,102.1
2017-07-21T00:16:05.943Z,102.1
2017-07-21T00:17:05.157Z,102.3
2017-07-21T00:18:04.359Z,102.4
2017-07-21T00:19:04.056Z,102.4
2017-07-21T00:20:03.258Z,102.6
2017-07-21T00:21:02.751Z,102.6
2017-07-21T00:22:01.941Z,102.6
2017-07-21T00:23:01.014Z,102.5
2017-07-21T00:24:00.704Z,102.6
2017-07-21T00:24:59.880Z,102.5
2017-07-21T00:25:59.090Z,102.4
2017-07-21T00:26:58.671Z,102.6
2017-07-21T00:27:58.122Z,102.5
2017-07-21T00:28:57.208Z,102.5
2017-07-21T00:29:56.396Z,102.8
2017-07-21T00:30:26.906Z,102.8
2017-07-21T00:30:57.292Z,102.6
2017-07-21T00:31:27.797Z,102.6
2017-07-21T00:32:54.553Z,102.6
2017-07-21T00:33:54.115Z,102.5
2017-07-21T00:34:53.312Z,102.4
2017-07-21T00:35:52.393Z,102.2
2017-07-21T00:36:52.096Z,102.4
2017-07-21T00:37:51.275Z,102.2
2017-07-21T00:38:50.845Z,102.1
2017-07-21T00:39:49.807Z,102.4
2017-07-21T00:40:49.510Z,102.4
2017-07-21T00:41:20.014Z,102.4
2017-07-21T00:41:50.523Z,102.3
2017-07-21T00:42:21.018Z,102.3
2017-07-21T00:42:51.523Z,102.4
2017-07-21T00:43:21.915Z,102.4
2017-07-21T00:43:52.186Z,102.2
2017-07-21T00:44:22.568Z,102.2
2017-07-21T00:46:45.574Z,102.2
2017-07-21T00:47:44.645Z,102.1
2017-07-21T00:48:43.831Z,102
2017-07-21T00:49:43.531Z,102
2017-07-21T00:50:42.733Z,101.9
2017-07-21T00:51:41.924Z,101.9
2017-07-21T00:52:41.006Z,102
2017-07-21T00:53:11.509Z,102
2017-07-21T00:53:41.787Z,102
2017-07-21T00:54:12.158Z,102
2017-07-21T00:55:39.304Z,102
2017-07-21T00:56:38.880Z,102
2017-07-21T00:57:38.078Z,102.1
2017-07-21T00:58:37.280Z,102
2017-07-21T00:59:36.848Z,102.2
2017-07-21T01:00:36.049Z,102.1
2017-07-21T01:01:35.248Z,102.3
2017-07-21T01:02:34.471Z,102
2017-07-21T01:03:34.056Z,102.1
2017-07-21T01:05:32.634Z,102
2017-07-21T01:06:31.830Z,102.1
2017-07-21T01:07:31.530Z,102
2017-07-21T01:08:30.607Z,102.1
2017-07-21T01:09:30.322Z,102.2
2017-07-21T01:10:29.389Z,102.3
2017-07-21T01:11:28.595Z,102.4
2017-07-21T01:12:28.159Z,102.4
2017-07-21T01:13:27.236Z,102.6
2017-07-21T01:13:57.887Z,102.6
2017-07-21T01:14:28.397Z,102.6
2017-07-21T01:15:25.972Z,102.4
2017-07-21T01:16:25.170Z,102.5
2017-07-21T01:17:24.749Z,102.5
2017-07-21T01:18:23.950Z,102.5
2017-07-21T01:19:23.655Z,102.5
2017-07-21T01:20:22.723Z,102.6
2017-07-21T01:21:21.928Z,102.7
2017-07-21T01:22:21.618Z,102.7
2017-07-21T01:23:20.859Z,102.7
2017-07-21T01:24:20.055Z,102.7
2017-07-21T01:24:50.563Z,102.7
2017-07-21T01:25:21.136Z,102.7
2017-07-21T01:26:18.816Z,102.6
2017-07-21T01:27:18.012Z,102.6
2017-07-21T01:28:17.212Z,102.7
2017-07-21T01:29:16.789Z,102.7
2017-07-21T01:30:15.866Z,102.6
2017-07-21T01:31:15.456Z,102.7
2017-07-21T01:32:14.662Z,102.8
2017-07-21T01:33:14.238Z,102.6
2017-07-21T01:34:13.084Z,102.6
2017-07-21T01:35:12.667Z,102.6
2017-07-21T01:36:12.242Z,102.8
2017-07-21T01:37:11.331Z,102.8
2017-07-21T01:38:10.519Z,102.8
2017-07-21T01:39:10.219Z,102.8
2017-07-21T01:39:40.771Z,102.8
2017-07-21T01:40:11.287Z,102.7
2017-07-21T01:40:41.781Z,102.7
2017-07-21T01:42:08.026Z,102.8
2017-07-21T01:43:07.603Z,102.9
2017-07-21T01:44:06.793Z,102.8
2017-07-21T01:45:05.876Z,103
2017-07-21T01:46:05.577Z,103
2017-07-21T01:47:04.763Z,103
2017-07-21T01:48:03.964Z,103.1
2017-07-21T01:49:03.156Z,103.1
2017-07-21T01:49:33.658Z,103.1
2017-07-21T01:50:04.152Z,103.1
2017-07-21T01:50:34.669Z,103.1
2017-07-21T01:51:05.176Z,103
2017-07-21T01:51:35.689Z,103
2017-07-21T01:53:00.815Z,103.1
2017-07-21T01:53:59.780Z,103.2
2017-07-21T01:54:59.369Z,103.2
2017-07-21T01:55:58.564Z,103.3
2017-07-21T01:56:57.634Z,103.2
2017-07-21T01:57:57.213Z,103.2
2017-07-21T01:58:56.672Z,103.1
2017-07-21T01:59:56.023Z,103
2017-07-21T02:00:55.221Z,103.1
2017-07-21T02:01:54.417Z,103
2017-07-21T02:02:24.699Z,103
2017-07-21T02:02:55.194Z,102.9
2017-07-21T02:03:53.247Z,102.9
2017-07-21T02:04:52.446Z,103.1
2017-07-21T02:05:52.027Z,103
2017-07-21T02:06:51.221Z,102.9
2017-07-21T02:07:50.411Z,103
2017-07-21T02:08:50.112Z,103.1
2017-07-21T02:09:49.302Z,103
2017-07-21T02:10:48.372Z,103.1
2017-07-21T02:11:48.072Z,103.2
2017-07-21T02:12:47.140Z,103.3
2017-07-21T02:13:46.610Z,103.3
2017-07-21T02:14:45.787Z,103.3
2017-07-21T02:15:44.978Z,103.4
2017-07-21T02:16:44.693Z,103.3
2017-07-21T02:17:43.898Z,103.6
2017-07-21T02:18:42.990Z,103.7
2017-07-21T02:19:42.693Z,103.7
2017-07-21T02:20:13.199Z,103.7
2017-07-21T02:20:43.699Z,103.8
2017-07-21T02:21:14.209Z,103.8
2017-07-21T02:21:44.731Z,103.8
2017-07-21T02:22:15.118Z,103.8
2017-07-21T02:23:39.759Z,103.8
2017-07-21T02:24:38.962Z,103.7
2017-07-21T02:25:38.541Z,103.6
2017-07-21T02:26:37.732Z,103.8
2017-07-21T02:27:36.944Z,104.1
2017-07-21T02:28:36.645Z,103.9
2017-07-21T02:29:35.854Z,103.8
2017-07-21T02:30:06.355Z,103.8
2017-07-21T02:30:36.861Z,104
2017-07-21T02:31:07.379Z,104
2017-07-21T02:31:37.770Z,104
2017-07-21T02:32:08.265Z,104
2017-07-21T02:32:38.409Z,103.8
2017-07-21T02:33:08.912Z,103.8
2017-07-21T02:33:39.559Z,103.9
2017-07-21T02:34:09.955Z,103.9
2017-07-21T02:35:31.686Z,104
2017-07-21T02:36:30.889Z,104
2017-07-21T02:37:30.077Z,104
2017-07-21T02:38:29.681Z,104.1
2017-07-21T02:39:28.764Z,104.2
2017-07-21T02:40:28.357Z,104.3
2017-07-21T02:41:27.437Z,104.2
2017-07-21T02:42:27.153Z,104.2
2017-07-21T02:43:26.364Z,104.2
2017-07-21T02:43:56.880Z,104.2
2017-07-21T02:44:27.419Z,104.1
2017-07-21T02:44:57.936Z,104.1
2017-07-21T02:45:28.443Z,104.1
2017-07-21T02:46:24.001Z,104.2
2017-07-21T02:47:23.585Z,104.4
2017-07-21T02:48:22.665Z,104.4
2017-07-21T02:49:22.252Z,104.4
2017-07-21T02:50:21.208Z,104.3
2017-07-21T02:51:20.912Z,104.5
2017-07-21T02:52:20.003Z,104.5
2017-07-21T02:53:19.204Z,104.4
2017-07-21T02:54:18.658Z,104.4
2017-07-21T02:55:17.867Z,104.6
2017-07-21T02:56:17.450Z,104.7
2017-07-21T02:57:16.529Z,104.7
2017-07-21T02:58:16.240Z,104.8
2017-07-21T02:59:15.447Z,104.7
2017-07-21T03:00:14.538Z,104.7
2017-07-21T03:01:14.140Z,104
2017-07-21T03:02:13.337Z,103.9
2017-07-21T03:02:43.729Z,103.9
2017-07-21T03:03:14.255Z,103.8
2017-07-21T03:03:44.774Z,103.8
2017-07-21T03:05:11.142Z,103.6
2017-07-21T03:06:10.835Z,103.5
2017-07-21T03:07:10.032Z,103
2017-07-21T03:08:09.224Z,102.9
2017-07-21T03:09:08.425Z,102.5
2017-07-21T03:10:07.629Z,102.5
2017-07-21T03:11:07.221Z,102.7
2017-07-21T03:12:06.424Z,102.8
2017-07-21T03:13:05.630Z,102.5
2017-07-21T03:13:36.032Z,102.5
2017-07-21T03:14:06.307Z,102.7
2017-07-21T03:14:36.709Z,102.7
2017-07-21T03:15:07.270Z,102
2017-07-21T03:16:03.947Z,101.9
2017-07-21T03:17:02.922Z,101.6
2017-07-21T03:18:02.513Z,101.4
2017-07-21T03:20:01.101Z,101.5
2017-07-21T03:21:00.184Z,101.8
2017-07-21T03:21:59.776Z,101.9
2017-07-21T03:22:58.984Z,102.1
2017-07-21T03:23:58.340Z,102.1
2017-07-21T03:24:57.432Z,101.9
2017-07-21T03:25:57.150Z,102.2
2017-07-21T03:26:56.253Z,101.8
2017-07-21T03:27:55.721Z,102
2017-07-21T03:28:54.924Z,102
2017-07-21T03:29:25.428Z,102
2017-07-21T03:29:55.940Z,102
2017-07-21T03:30:26.457Z,102
2017-07-21T03:30:56.881Z,102.2
2017-07-21T03:31:53.077Z,102.5
2017-07-21T03:32:52.174Z,102.4
2017-07-21T03:33:51.268Z,102
2017-07-21T03:34:50.965Z,102
2017-07-21T03:35:50.170Z,102.1
2017-07-21T03:36:49.367Z,102
2017-07-21T03:37:48.577Z,101.9
2017-07-21T03:38:48.161Z,102
2017-07-21T03:39:18.677Z,102
2017-07-21T03:39:49.194Z,101.7
2017-07-21T03:40:19.702Z,101.7
2017-07-21T03:41:46.086Z,101.5
2017-07-21T03:42:45.291Z,101.5
2017-07-21T03:43:44.491Z,101.2
2017-07-21T03:44:44.196Z,101.2
2017-07-21T03:45:43.390Z,101.1
2017-07-21T03:46:42.586Z,101.2
2017-07-21T03:47:41.780Z,101.4
2017-07-21T03:48:41.477Z,101.3
2017-07-21T03:49:40.686Z,101.5
2017-07-21T03:50:39.892Z,101.3
2017-07-21T03:51:39.482Z,101.2
2017-07-21T03:52:38.554Z,101.1
2017-07-21T03:53:37.754Z,101.3
2017-07-21T03:54:37.343Z,101
2017-07-21T03:55:36.412Z,101.1
2017-07-21T03:56:35.614Z,101
2017-07-21T03:57:35.197Z,101
2017-07-21T03:58:34.391Z,101.1
2017-07-21T03:59:04.779Z,101.1
2017-07-21T03:59:35.166Z,101.1
2017-07-21T04:00:05.558Z,101.1
2017-07-21T04:00:35.872Z,101.2
2017-07-21T04:01:32.440Z,101.5
2017-07-21T04:02:31.399Z,100.7
2017-07-21T04:03:30.983Z,100.2
2017-07-21T04:04:30.214Z,100.6
2017-07-21T04:05:29.416Z,100.7
2017-07-21T04:06:29.007Z,99.6
2017-07-21T04:07:28.106Z,99.8
2017-07-21T04:08:27.835Z,99.8
2017-07-21T04:08:58.230Z,99.8
2017-07-21T04:09:28.739Z,99.6
2017-07-21T04:09:58.895Z,99.6
2017-07-21T04:10:29.407Z,99.4
2017-07-21T04:11:00.073Z,99.4
2017-07-21T04:11:30.581Z,99.1
2017-07-21T04:12:01.247Z,99.1
2017-07-21T04:12:31.761Z,99.6
2017-07-21T04:13:02.274Z,99.6
2017-07-21T04:14:23.488Z,99.9
2017-07-21T04:15:22.578Z,100
2017-07-21T04:16:22.184Z,99.9
2017-07-21T04:17:21.273Z,100.4
2017-07-21T04:18:20.853Z,99.7
2017-07-21T04:19:20.066Z,98.8
2017-07-21T04:19:50.582Z,98.8
2017-07-21T04:20:21.094Z,98.3
2017-07-21T04:20:51.369Z,98.3
2017-07-21T04:21:21.880Z,98.7
2017-07-21T04:21:52.268Z,98.7
2017-07-21T04:22:22.655Z,98.4
2017-07-21T04:22:53.049Z,98.4
2017-07-21T04:24:16.302Z,97.7
2017-07-21T04:25:15.997Z,97.7
2017-07-21T04:26:15.233Z,97.7
2017-07-21T04:27:14.438Z,97.5
2017-07-21T04:28:14.138Z,97.1
2017-07-21T04:29:13.358Z,96.6
2017-07-21T04:30:12.462Z,96.2
2017-07-21T04:31:11.674Z,96.2
2017-07-21T04:32:11.256Z,95.9
2017-07-21T04:33:10.448Z,96
2017-07-21T04:33:40.973Z,96
2017-07-21T04:34:11.475Z,96.3
2017-07-21T04:35:09.150Z,96.2
2017-07-21T04:36:08.229Z,95.1
2017-07-21T04:37:07.938Z,95
2017-07-21T04:38:07.141Z,95.4
2017-07-21T04:39:06.221Z,96.4
2017-07-21T04:40:05.933Z,95.8
2017-07-21T04:40:36.451Z,95.8
2017-07-21T04:41:06.726Z,95
2017-07-21T04:42:04.293Z,95.6
2017-07-21T04:43:03.491Z,95.9
2017-07-21T04:44:03.210Z,96.2
2017-07-21T04:45:02.052Z,96
2017-07-21T04:46:01.647Z,95.7
2017-07-21T04:47:00.747Z,97.2
2017-07-21T04:48:00.217Z,97
2017-07-21T04:48:59.414Z,96.4
2017-07-21T04:49:59.009Z,96
2017-07-21T04:50:58.083Z,95.7
2017-07-21T04:51:28.610Z,95.7
2017-07-21T04:51:59.010Z,95.3
2017-07-21T04:52:29.527Z,95.3
2017-07-21T04:53:55.800Z,95
2017-07-21T04:54:55.518Z,95.2
2017-07-21T04:55:54.605Z,96.1
2017-07-21T04:56:54.067Z,96.4
2017-07-21T04:57:53.256Z,96.2
2017-07-21T04:58:52.459Z,95.5
2017-07-21T04:59:52.163Z,94.8
2017-07-21T05:00:51.363Z,94.6
2017-07-21T05:01:50.559Z,95.1
2017-07-21T05:02:21.063Z,95.1
2017-07-21T05:03:49.456Z,94.9
2017-07-21T05:04:48.554Z,95.9
2017-07-21T05:05:48.137Z,94.4
2017-07-21T05:06:47.331Z,94.7
2017-07-21T05:08:45.918Z,94.6
2017-07-21T05:09:45.009Z,94.1
2017-07-21T05:10:44.709Z,93.9
2017-07-21T05:11:43.920Z,93.9
2017-07-21T05:12:42.995Z,93.5
2017-07-21T05:13:42.551Z,93.6
2017-07-21T05:14:41.528Z,93.3
2017-07-21T05:15:41.233Z,93.5
2017-07-21T05:16:40.439Z,93.4
2017-07-21T05:17:39.642Z,94
2017-07-21T05:18:10.157Z,94
2017-07-21T05:19:38.430Z,93.4
2017-07-21T05:20:37.391Z,93.1
2017-07-21T05:21:36.875Z,93.6
2017-07-21T05:22:36.456Z,93.8
2017-07-21T05:23:35.525Z,93.9
2017-07-21T05:24:34.717Z,93.4
2017-07-21T05:25:34.447Z,93
2017-07-21T05:26:33.653Z,92.6
2017-07-21T05:27:32.743Z,92.8
2017-07-21T05:28:32.307Z,93.2
2017-07-21T05:29:02.909Z,93.2
2017-07-21T05:30:30.687Z,93.7
2017-07-21T05:31:30.392Z,93.8
2017-07-21T05:33:29.006Z,92.9
2017-07-21T05:34:28.077Z,93.3
2017-07-21T05:36:26.554Z,93.6
2017-07-21T05:37:26.260Z,92.7
2017-07-21T05:38:25.471Z,92.6
2017-07-21T05:39:24.678Z,91.7
2017-07-21T05:40:24.270Z,91.5
2017-07-21T05:41:23.353Z,91.6
2017-07-21T05:43:21.945Z,91.2
2017-07-21T05:44:21.135Z,91.2
2017-07-21T05:45:20.825Z,91.4
2017-07-21T05:46:20.025Z,91.5
2017-07-21T05:47:19.119Z,92.1
2017-07-21T05:47:49.516Z,92.1
2017-07-21T05:48:20.026Z,92.5
2017-07-21T05:48:50.532Z,92.5
2017-07-21T05:50:17.420Z,92.4
2017-07-21T05:51:16.505Z,92.5
2017-07-21T05:52:15.576Z,93.5
2017-07-21T05:53:15.156Z,94.1
2017-07-21T05:54:14.641Z,94.4
2017-07-21T05:55:13.848Z,93
2017-07-21T05:56:13.313Z,93.5
2017-07-21T05:57:12.400Z,92.4
2017-07-21T05:57:42.703Z,92.4
2017-07-21T05:58:13.100Z,92
2017-07-21T05:58:43.628Z,92
2017-07-21T05:59:14.030Z,92
2017-07-21T05:59:44.422Z,92
2017-07-21T06:00:14.814Z,91.4
2017-07-21T06:00:45.333Z,91.4
2017-07-21T06:01:15.847Z,91.5
2017-07-21T06:01:46.111Z,91.5
2017-07-21T06:03:08.349Z,91.5
2017-07-21T06:04:07.925Z,91.7
2017-07-21T06:05:07.119Z,92.5
2017-07-21T06:06:06.322Z,91.9
2017-07-21T06:07:05.533Z,91.1
2017-07-21T06:08:04.885Z,92.3
2017-07-21T06:09:04.608Z,91
2017-07-21T06:10:03.698Z,90.9
2017-07-21T06:10:34.089Z,90.9
2017-07-21T06:11:04.484Z,91.3
2017-07-21T06:11:34.983Z,91.3
2017-07-21T06:12:05.485Z,91.6
2017-07-21T06:12:35.999Z,91.6
2017-07-21T06:14:00.874Z,91.8
2017-07-21T06:15:00.564Z,91.7
2017-07-21T06:15:59.651Z,92.1
2017-07-21T06:16:58.857Z,91.8
2017-07-21T06:17:58.428Z,91.4
2017-07-21T06:18:57.507Z,91.3
2017-07-21T06:19:57.092Z,91.3
2017-07-21T06:20:56.179Z,91.4
2017-07-21T06:21:55.893Z,92.7
2017-07-21T06:22:54.872Z,92.4
2017-07-21T06:23:54.342Z,92.4
2017-07-21T06:24:53.427Z,92.4
2017-07-21T06:25:53.118Z,92.2
2017-07-21T06:26:52.319Z,91.5
2017-07-21T06:27:51.523Z,91.6
2017-07-21T06:28:50.721Z,91.5
2017-07-21T06:29:50.421Z,92.1
2017-07-21T06:30:20.941Z,92.1
2017-07-21T06:31:48.828Z,91.3
2017-07-21T06:32:48.030Z,91.8
2017-07-21T06:33:47.736Z,91.4
2017-07-21T06:34:46.707Z,91.4
2017-07-21T06:35:46.192Z,91.2
2017-07-21T06:36:45.656Z,91.4
2017-07-21T06:37:44.877Z,90.6
2017-07-21T06:38:43.957Z,89.7
2017-07-21T06:39:43.410Z,90.3
2017-07-21T06:40:42.629Z,90.5
2017-07-21T06:41:13.024Z,90.5
2017-07-21T06:41:43.543Z,90.8
2017-07-21T06:42:13.926Z,90.8
2017-07-21T06:42:44.194Z,90.3
2017-07-21T06:43:40.875Z,91.2
2017-07-21T06:44:39.958Z,92.3
2017-07-21T06:45:39.541Z,91.6
2017-07-21T06:46:38.756Z,90.1
2017-07-21T06:47:38.151Z,90.7
2017-07-21T06:48:37.255Z,91.8
2017-07-21T06:49:36.845Z,91.7
2017-07-21T06:50:35.925Z,90.9
2017-07-21T06:51:35.499Z,90.5
2017-07-21T06:52:06.008Z,90.5
2017-07-21T06:52:36.517Z,90.4
2017-07-21T06:53:34.231Z,91.1
2017-07-21T06:54:33.451Z,91
2017-07-21T06:55:32.652Z,90.8
2017-07-21T06:56:32.108Z,89
2017-07-21T06:57:02.494Z,89
2017-07-21T06:57:32.784Z,89.2
2017-07-21T06:58:30.877Z,88.9
2017-07-21T06:59:30.083Z,89.5
2017-07-21T07:00:29.281Z,88.9
2017-07-21T07:01:28.369Z,89.3
2017-07-21T07:02:28.080Z,88.2
2017-07-21T07:03:27.566Z,88
2017-07-21T07:04:26.817Z,88.7
2017-07-21T07:05:26.024Z,88.7
2017-07-21T07:06:25.229Z,87.8
2017-07-21T07:06:55.615Z,87.8
2017-07-21T07:08:24.002Z,87
2017-07-21T07:09:23.204Z,87.5
2017-07-21T07:10:22.905Z,87.2
2017-07-21T07:11:22.103Z,86.7
2017-07-21T07:12:21.202Z,86.4
2017-07-21T07:13:20.922Z,86.6
2017-07-21T07:14:20.001Z,86
2017-07-21T07:15:19.601Z,86
2017-07-21T07:16:18.678Z,86.9
2017-07-21T07:17:17.870Z,85.9
2017-07-21T07:19:16.460Z,85.8
2017-07-21T07:20:15.939Z,85.9
2017-07-21T07:21:15.140Z,85.2
2017-07-21T07:22:14.854Z,85.2
2017-07-21T07:23:13.837Z,85.2
2017-07-21T07:24:13.544Z,84.7
2017-07-21T07:25:12.751Z,85
2017-07-21T07:26:12.231Z,85.3
2017-07-21T07:27:11.438Z,84.6
2017-07-21T07:28:10.628Z,84.4
2017-07-21T07:30:09.214Z,84.8
2017-07-21T07:31:08.800Z,85.2
2017-07-21T07:32:07.770Z,84.8
2017-07-21T07:33:07.351Z,84.6
2017-07-21T07:34:06.559Z,85
2017-07-21T07:35:06.148Z,84.9
2017-07-21T07:36:05.341Z,84.9
2017-07-21T07:37:04.695Z,85.5
2017-07-21T07:37:35.207Z,85.5
2017-07-21T07:38:05.601Z,84.2
2017-07-21T07:38:35.757Z,84.2
2017-07-21T07:39:06.290Z,84.2
2017-07-21T07:39:36.673Z,84.2
2017-07-21T07:41:01.923Z,84.7
2017-07-21T07:42:01.623Z,85.2
2017-07-21T07:43:00.818Z,85.1
2017-07-21T07:44:00.023Z,84.9
2017-07-21T07:44:59.245Z,84.7
2017-07-21T07:45:58.725Z,84.8
2017-07-21T07:46:58.420Z,84.5
2017-07-21T07:47:28.802Z,84.5
2017-07-21T07:47:59.315Z,84.8
2017-07-21T07:48:29.719Z,84.8
2017-07-21T07:49:00.000Z,84.3
2017-07-21T07:49:30.507Z,84.3
2017-07-21T07:50:01.178Z,84.3
2017-07-21T07:50:31.580Z,84.3
2017-07-21T07:51:01.973Z,84.5
2017-07-21T07:51:32.408Z,84.5
2017-07-21T07:52:54.018Z,82.9
2017-07-21T07:53:53.727Z,82.8
2017-07-21T07:54:52.815Z,83.7
2017-07-21T07:55:52.414Z,83.7
2017-07-21T07:56:51.489Z,83.5
2017-07-21T07:57:51.181Z,84
2017-07-21T07:58:50.366Z,84.5
2017-07-21T07:59:49.460Z,84.9
2017-07-21T08:00:49.154Z,84.3
2017-07-21T08:01:19.665Z,84.3
2017-07-21T08:02:20.441Z,83.1
2017-07-21T08:02:50.953Z,82.5
2017-07-21T08:03:47.013Z,83.1
2017-07-21T08:04:46.590Z,82.7
2017-07-21T08:05:45.449Z,82.2
2017-07-21T08:06:45.040Z,82.7
2017-07-21T08:07:44.245Z,83.4
2017-07-21T08:08:14.754Z,83.4
2017-07-21T08:08:45.029Z,82.9
2017-07-21T08:09:43.100Z,83.1
2017-07-21T08:10:42.299Z,84.1
2017-07-21T08:11:41.877Z,84.4
2017-07-21T08:12:40.972Z,83.8
2017-07-21T08:13:40.691Z,83.6
2017-07-21T08:14:39.885Z,83.6
2017-07-21T08:15:39.355Z,82.8
2017-07-21T08:16:38.559Z,83.1
2017-07-21T08:17:37.779Z,81.8
2017-07-21T08:18:37.371Z,81.3
2017-07-21T08:19:07.757Z,81.3
2017-07-21T08:19:38.264Z,81.6
2017-07-21T08:20:08.655Z,81.6
2017-07-21T08:20:39.047Z,80.1
2017-07-21T08:21:09.573Z,80.1
2017-07-21T08:22:34.934Z,78.1
2017-07-21T08:23:34.015Z,78.8
2017-07-21T08:24:33.223Z,78.7
2017-07-21T08:25:32.803Z,78.1
2017-07-21T08:26:32.269Z,78.7
2017-07-21T08:27:31.340Z,77.3
2017-07-21T08:28:31.060Z,76.8
2017-07-21T08:29:30.261Z,77.2
2017-07-21T08:30:00.533Z,77.2
2017-07-21T08:30:31.044Z,78.2
2017-07-21T08:31:01.553Z,78.2
2017-07-21T08:32:28.433Z,78.2
2017-07-21T08:33:27.408Z,78.6
2017-07-21T08:34:26.988Z,78.9
2017-07-21T08:35:26.206Z,77.7
2017-07-21T08:36:25.893Z,77.5
2017-07-21T08:37:24.973Z,77.9
2017-07-21T08:38:24.551Z,78.4
2017-07-21T08:39:23.786Z,77.7
2017-07-21T08:40:23.127Z,77.9
2017-07-21T08:41:22.703Z,78.4
2017-07-21T08:42:21.808Z,77.9
2017-07-21T08:43:21.387Z,78.3
2017-07-21T08:44:20.460Z,78.5
2017-07-21T08:45:19.929Z,78
2017-07-21T08:46:19.141Z,77.7
2017-07-21T08:47:18.872Z,77.7
2017-07-21T08:48:17.837Z,77.3
2017-07-21T08:49:17.418Z,77.6
2017-07-21T08:50:16.621Z,77.7
2017-07-21T08:52:15.593Z,77.9
2017-07-21T08:53:14.811Z,77.8
2017-07-21T08:54:14.024Z,77.8
2017-07-21T08:55:13.604Z,77.7
2017-07-21T08:56:13.199Z,78.8
2017-07-21T08:56:43.728Z,78.8
2017-07-21T08:57:14.222Z,78.6
2017-07-21T08:57:44.751Z,78.6
2017-07-21T08:58:15.025Z,78.1
2017-07-21T08:59:11.204Z,78.2
2017-07-21T09:00:10.282Z,78.1
2017-07-21T09:01:10.000Z,78.4
2017-07-21T09:02:09.209Z,79.3
2017-07-21T09:03:08.419Z,79.6
2017-07-21T09:04:07.998Z,79.3
2017-07-21T09:05:07.456Z,79.2
2017-07-21T09:06:06.414Z,78.7
2017-07-21T09:07:05.882Z,79.5
2017-07-21T09:08:05.457Z,79.6
2017-07-21T09:09:04.539Z,79.3
2017-07-21T09:10:04.133Z,79.4
2017-07-21T09:11:03.213Z,79.3
2017-07-21T09:12:02.799Z,79.9
2017-07-21T09:13:02.384Z,80.1
2017-07-21T09:14:01.591Z,80
2017-07-21T09:15:01.180Z,80
2017-07-21T09:16:00.380Z,79.2
2017-07-21T09:16:30.900Z,79.2
2017-07-21T09:17:01.407Z,78.8
2017-07-21T09:17:31.796Z,78.8
2017-07-21T09:18:02.296Z,78
2017-07-21T09:18:32.811Z,78
2017-07-21T09:19:57.951Z,78
2017-07-21T09:20:56.902Z,77.2
2017-07-21T09:21:56.608Z,77.6
2017-07-21T09:22:55.698Z,78.1
2017-07-21T09:23:55.055Z,77.3
2017-07-21T09:24:54.753Z,77.3
2017-07-21T09:25:54.109Z,77.1
2017-07-21T09:26:24.499Z,77.1
2017-07-21T09:26:54.885Z,76
2017-07-21T09:27:25.148Z,76
2017-07-21T09:27:55.658Z,76.3
2017-07-21T09:28:25.939Z,76.3
2017-07-21T09:28:56.234Z,75.6
2017-07-21T09:29:26.741Z,75.6
2017-07-21T09:30:50.865Z,77.3
2017-07-21T09:31:50.070Z,76.7
2017-07-21T09:32:49.771Z,76.4
2017-07-21T09:33:48.966Z,76.1
2017-07-21T09:34:48.669Z,76.3
2017-07-21T09:35:47.749Z,76.1
2017-07-21T09:36:47.343Z,76.1
2017-07-21T09:37:46.552Z,76.3
2017-07-21T09:38:16.958Z,76.3
2017-07-21T09:38:47.342Z,76
2017-07-21T09:39:17.865Z,76
2017-07-21T09:39:48.139Z,76.3
2017-07-21T09:40:18.653Z,76.3
2017-07-21T09:41:43.941Z,76.9
2017-07-21T09:42:43.644Z,77.2
2017-07-21T09:43:43.117Z,77.9
2017-07-21T09:44:42.316Z,76.8
2017-07-21T09:45:41.405Z,77.1
2017-07-21T09:46:40.990Z,76.1
2017-07-21T09:47:40.346Z,76.7
2017-07-21T09:48:39.543Z,76.6
2017-07-21T09:49:39.004Z,76.1
2017-07-21T09:50:38.587Z,76.5
2017-07-21T09:51:37.781Z,77.2
2017-07-21T09:52:37.492Z,77
2017-07-21T09:53:36.686Z,77.8
2017-07-21T09:54:36.278Z,77.7
2017-07-21T09:55:35.486Z,77.2
2017-07-21T09:56:34.574Z,75.3
2017-07-21T09:57:34.032Z,76.1
2017-07-21T09:58:04.310Z,76.1
2017-07-21T09:58:34.838Z,75.8
2017-07-21T09:59:05.345Z,75.8
2017-07-21T10:00:32.100Z,75.4
2017-07-21T10:01:31.804Z,73.9
2017-07-21T10:02:31.174Z,74.1
2017-07-21T10:03:30.766Z,73.8
2017-07-21T10:04:29.976Z,73.7
2017-07-21T10:05:29.564Z,73.2
2017-07-21T10:06:28.779Z,74.9
2017-07-21T10:07:28.382Z,75.1
2017-07-21T10:08:27.461Z,74.5
2017-07-21T10:08:57.976Z,74.5
2017-07-21T10:09:28.479Z,73.4
2017-07-21T10:09:58.885Z,73.4
2017-07-21T10:10:29.394Z,74.3
2017-07-21T10:10:59.794Z,74.3
2017-07-21T10:12:25.172Z,75.5
2017-07-21T10:13:24.378Z,74.2
2017-07-21T10:14:23.967Z,73.7
2017-07-21T10:15:23.543Z,73.1
2017-07-21T10:16:22.745Z,73.9
2017-07-21T10:17:22.452Z,72
2017-07-21T10:18:21.682Z,71.9
2017-07-21T10:19:20.889Z,72.8
2017-07-21T10:20:20.487Z,73.4
2017-07-21T10:20:51.002Z,73.4
2017-07-21T10:22:19.278Z,73.1
2017-07-21T10:23:18.857Z,74.1
2017-07-21T10:24:17.828Z,73.4
2017-07-21T10:25:17.414Z,73.7
2017-07-21T10:26:17.114Z,75
2017-07-21T10:27:16.313Z,74.5
2017-07-21T10:28:15.892Z,73.8
2017-07-21T10:29:15.103Z,73.4
2017-07-21T10:30:14.440Z,72.3
2017-07-21T10:31:13.901Z,71.5
2017-07-21T10:32:13.360Z,72.6
2017-07-21T10:33:13.067Z,71.9
2017-07-21T10:34:12.545Z,71.9
2017-07-21T10:35:11.622Z,72.8
2017-07-21T10:36:11.319Z,72.8
2017-07-21T10:37:10.524Z,72.4
2017-07-21T10:38:10.234Z,72.1
2017-07-21T10:39:09.199Z,71.8
2017-07-21T10:40:08.665Z,72.3
2017-07-21T10:41:08.253Z,72.3
2017-07-21T10:41:38.764Z,72.3
2017-07-21T10:42:09.159Z,72.1
2017-07-21T10:43:06.860Z,72.8
2017-07-21T10:44:06.570Z,72.4
2017-07-21T10:45:06.166Z,72
2017-07-21T10:46:05.383Z,70.8
2017-07-21T10:47:04.848Z,71.2
2017-07-21T10:48:04.051Z,71.5
2017-07-21T10:49:03.636Z,71.7
2017-07-21T10:50:03.221Z,71.8
2017-07-21T10:51:02.422Z,71.8
2017-07-21T10:52:02.129Z,69.6
2017-07-21T10:53:01.100Z,69.6
2017-07-21T10:54:00.813Z,69
2017-07-21T10:55:00.016Z,69.8
2017-07-21T10:55:59.607Z,70.2
2017-07-21T10:56:59.297Z,69.6
2017-07-21T10:57:58.503Z,69.7
2017-07-21T10:58:57.707Z,68.1
2017-07-21T10:59:57.288Z,67.9
2017-07-21T11:00:56.891Z,67.9
2017-07-21T11:01:56.104Z,67.8
2017-07-21T11:02:55.585Z,68.6
2017-07-21T11:03:55.113Z,68.2
2017-07-21T11:04:54.816Z,70.8
2017-07-21T11:05:53.773Z,70.1
2017-07-21T11:06:53.356Z,70.7
2017-07-21T11:07:23.759Z,70.7
2017-07-21T11:07:54.284Z,71.4
2017-07-21T11:08:24.668Z,71.4
2017-07-21T11:08:55.056Z,71.6
2017-07-21T11:09:25.829Z,71.6
2017-07-21T11:10:51.084Z,71.4
2017-07-21T11:11:50.787Z,70.9
2017-07-21T11:12:49.986Z,71.8
2017-07-21T11:13:49.589Z,70.9
2017-07-21T11:14:48.779Z,70.2
2017-07-21T11:15:48.481Z,69.5
2017-07-21T11:16:47.563Z,71.4
2017-07-21T11:17:18.080Z,71.4
2017-07-21T11:17:48.740Z,68.8
2017-07-21T11:18:19.150Z,68.8
2017-07-21T11:18:49.537Z,68.1
2017-07-21T11:19:20.051Z,68.1
2017-07-21T11:19:50.563Z,69.3
2017-07-21T11:20:21.086Z,69.3
2017-07-21T11:22:44.327Z,68.5
2017-07-21T11:23:43.799Z,68.6
2017-07-21T11:24:43.252Z,69.2
2017-07-21T11:25:42.969Z,69
2017-07-21T11:26:42.170Z,68.1
2017-07-21T11:27:41.631Z,69.1
2017-07-21T11:28:41.345Z,68.2
2017-07-21T11:29:40.549Z,66.3
2017-07-21T11:30:40.290Z,66.4
2017-07-21T11:31:10.789Z,66.4
2017-07-21T11:31:41.177Z,65.6
2017-07-21T11:32:11.692Z,65.6
2017-07-21T11:32:42.088Z,67.5
2017-07-21T11:33:38.593Z,67.7
2017-07-21T11:34:37.790Z,65.9
2017-07-21T11:35:37.496Z,64.9
2017-07-21T11:36:37.077Z,65
2017-07-21T11:37:36.281Z,65.6
2017-07-21T11:38:06.791Z,65.6
2017-07-21T11:38:37.342Z,65.6
2017-07-21T11:39:07.756Z,65.6
2017-07-21T11:39:37.915Z,65.1
2017-07-21T11:40:34.616Z,65
2017-07-21T11:41:34.319Z,65
2017-07-21T11:42:33.516Z,65.4
2017-07-21T11:43:33.106Z,65.4
2017-07-21T11:44:32.810Z,66
2017-07-21T11:45:32.029Z,67.5
2017-07-21T11:46:31.617Z,68.1
2017-07-21T11:47:31.083Z,68.6
2017-07-21T11:48:30.668Z,65.4
2017-07-21T11:49:01.108Z,65.4
2017-07-21T11:49:31.507Z,65.5
2017-07-21T11:50:01.930Z,65.5
2017-07-21T11:50:32.320Z,65.3
2017-07-21T11:51:02.592Z,65.3
2017-07-21T11:51:33.110Z,66
2017-07-21T11:52:03.627Z,66